Time;durP1;ratioP1;P1;durP2;ratioP2;P2;SDS_P1;SDS_P2;PMS_P1;PMS_P2;Temp;Humidity;BMP_temperature;BMP_pressure;BME280_temperature;BME280_humidity;BME280_pressure;Samples;Min_cycle;Max_cycle;Signal;HPM_P1;HPM_P2
2021/03/30 00:02:10;;;;;;;7.13;4.63;;;10.20;99.90;;;;;;5096146;28;20238;-59
2021/03/30 00:04:37;;;;;;;8.50;5.47;;;10.10;99.90;;;;;;5095740;28;20580;-59
2021/03/30 00:07:05;;;;;;;8.23;4.70;;;10.00;99.90;;;;;;5095675;28;20538;-60
2021/03/30 00:09:32;;;;;;;7.40;5.00;;;9.90;99.90;;;;;;5095680;28;20299;-62
2021/03/30 00:12:01;;;;;;;9.40;5.33;;;9.90;99.90;;;;;;5095140;28;20206;-60
2021/03/30 00:14:28;;;;;;;9.40;6.07;;;9.80;99.90;;;;;;5095051;28;20291;-59
2021/03/30 00:16:56;;;;;;;8.10;5.40;;;9.70;99.90;;;;;;5095565;28;20207;-59
2021/03/30 00:19:23;;;;;;;9.30;5.27;;;9.80;99.90;;;;;;5095119;28;20235;-60
2021/03/30 00:21:50;;;;;;;8.07;5.50;;;9.80;99.90;;;;;;5095078;28;20302;-60
2021/03/30 00:24:17;;;;;;;11.03;5.60;;;10.00;99.90;;;;;;5095292;28;20228;-59
2021/03/30 00:26:44;;;;;;;9.90;5.53;;;10.10;99.90;;;;;;5094485;28;20234;-60
2021/03/30 00:29:11;;;;;;;9.23;5.60;;;10.30;99.90;;;;;;5094984;28;20231;-59
2021/03/30 00:31:38;;;;;;;9.63;5.67;;;10.10;99.90;;;;;;5095282;28;20296;-60
2021/03/30 00:34:06;;;;;;;12.80;7.40;;;10.10;99.90;;;;;;5094889;28;20652;-59
2021/03/30 00:36:33;;;;;;;9.67;6.20;;;10.00;99.90;;;;;;5094940;28;20225;-60
2021/03/30 00:38:59;;;;;;;9.93;6.27;;;9.90;99.90;;;;;;5095121;28;20196;-60
2021/03/30 00:41:26;;;;;;;9.13;5.47;;;9.90;99.90;;;;;;5094760;28;20300;-60
2021/03/30 00:43:53;;;;;;;6.97;4.87;;;9.90;99.90;;;;;;5094755;28;20231;-61
2021/03/30 00:46:20;;;;;;;6.07;4.27;;;9.80;99.90;;;;;;5094140;28;20222;-59
2021/03/30 00:48:49;;;;;;;6.23;4.23;;;9.90;99.90;;;;;;5094931;28;20203;-59
2021/03/30 00:51:18;;;;;;;6.80;4.30;;;9.70;99.90;;;;;;5094804;28;20204;-60
2021/03/30 00:53:45;;;;;;;6.67;4.43;;;9.70;99.90;;;;;;5094625;28;20287;-60
2021/03/30 00:56:12;;;;;;;7.13;4.23;;;9.70;99.90;;;;;;5094666;28;20556;-59
2021/03/30 00:58:40;;;;;;;10.10;4.50;;;9.70;99.90;;;;;;5094213;28;20242;-60
2021/03/30 01:01:07;;;;;;;9.33;5.10;;;9.70;99.90;;;;;;5094380;28;20250;-59
2021/03/30 01:03:33;;;;;;;9.00;4.67;;;9.70;99.90;;;;;;5094645;28;20574;-59
2021/03/30 01:06:00;;;;;;;6.93;4.83;;;9.70;99.90;;;;;;5094223;28;20222;-60
2021/03/30 01:08:52;;;;;;;9.03;4.83;;;9.60;99.90;;;;;;5094473;28;20281;-61
2021/03/30 01:11:28;;;;;;;6.93;4.70;;;9.50;99.90;;;;;;5094158;28;20218;-60
2021/03/30 01:14:07;;;;;;;7.77;4.90;;;9.50;99.90;;;;;;5094272;28;20183;-59
2021/03/30 01:16:39;;;;;;;9.17;5.00;;;9.50;99.90;;;;;;5094399;28;20279;-59
2021/03/30 01:19:17;;;;;;;8.17;5.47;;;9.50;99.90;;;;;;5093889;28;20191;-60
2021/03/30 01:22:08;;;;;;;11.23;6.30;;;9.50;99.90;;;;;;5094227;28;20190;-58
2021/03/30 01:24:38;;;;;;;13.13;6.90;;;9.40;99.90;;;;;;5093923;28;20207;-59
2021/03/30 01:27:09;;;;;;;13.93;8.50;;;9.30;99.90;;;;;;5093303;28;20228;-58
2021/03/30 01:29:44;;;;;;;14.90;7.50;;;9.30;99.90;;;;;;5094049;28;20191;-59
2021/03/30 01:32:31;;;;;;;11.33;5.93;;;9.20;99.90;;;;;;5093870;28;20267;-59
2021/03/30 01:35:00;;;;;;;10.63;5.47;;;9.20;99.90;;;;;;5094009;28;20715;-60
2021/03/30 01:37:28;;;;;;;5.20;4.53;;;9.10;99.90;;;;;;5093678;28;20231;-59
2021/03/30 01:39:58;;;;;;;10.00;4.67;;;9.10;99.90;;;;;;5093799;28;20200;-59
2021/03/30 01:42:29;;;;;;;7.27;4.90;;;9.10;99.90;;;;;;5093242;28;20284;-60
2021/03/30 01:44:57;;;;;;;6.50;5.03;;;9.10;99.90;;;;;;5093611;28;20204;-61
2021/03/30 01:47:27;;;;;;;8.37;5.20;;;9.00;99.90;;;;;;5093508;28;20295;-59
2021/03/30 01:49:55;;;;;;;8.73;5.03;;;9.00;99.90;;;;;;5093172;28;20671;-59
2021/03/30 01:52:22;;;;;;;9.13;5.47;;;8.90;99.90;;;;;;5093550;28;20283;-61
2021/03/30 01:54:50;;;;;;;8.50;5.37;;;9.00;99.90;;;;;;5093656;28;20200;-59
2021/03/30 01:57:24;;;;;;;8.77;5.80;;;9.00;99.90;;;;;;5093156;28;20206;-59
2021/03/30 01:59:52;;;;;;;10.53;6.17;;;8.90;99.90;;;;;;5093364;28;20184;-60
2021/03/30 02:02:20;;;;;;;8.47;5.37;;;9.00;99.90;;;;;;5093422;28;20210;-60
2021/03/30 02:04:48;;;;;;;9.93;5.60;;;8.90;99.90;;;;;;5093452;28;20269;-60
2021/03/30 02:07:16;;;;;;;8.93;5.93;;;8.90;99.90;;;;;;5093230;28;20200;-59
2021/03/30 02:09:48;;;;;;;10.07;6.67;;;8.90;99.90;;;;;;5093373;28;20250;-60
2021/03/30 02:12:16;;;;;;;10.00;6.40;;;8.80;99.90;;;;;;5092648;28;20184;-60
2021/03/30 02:14:44;;;;;;;6.77;5.33;;;8.70;99.90;;;;;;5093143;28;20292;-58
2021/03/30 02:17:19;;;;;;;8.63;5.53;;;8.80;99.90;;;;;;5093324;28;20208;-59
2021/03/30 02:19:50;;;;;;;9.07;6.30;;;8.60;99.90;;;;;;5093236;28;20187;-59
2021/03/30 02:22:25;;;;;;;8.27;6.27;;;8.70;99.90;;;;;;5093314;28;20207;-59
2021/03/30 02:24:54;;;;;;;12.37;5.77;;;8.60;99.90;;;;;;5092544;28;20664;-58
2021/03/30 02:27:23;;;;;;;11.67;6.63;;;8.60;99.90;;;;;;5092891;28;20271;-60
2021/03/30 02:29:51;;;;;;;9.40;6.13;;;8.60;99.90;;;;;;5092736;28;20279;-60
2021/03/30 02:32:19;;;;;;;9.93;6.13;;;8.60;99.90;;;;;;5093245;28;20290;-60
2021/03/30 02:34:48;;;;;;;9.60;5.77;;;8.60;99.90;;;;;;5093176;28;20224;-59
2021/03/30 02:37:16;;;;;;;7.50;5.23;;;8.70;99.90;;;;;;5092398;28;20298;-60
2021/03/30 02:39:43;;;;;;;8.60;4.97;;;8.70;99.90;;;;;;5091994;28;20238;-60
2021/03/30 02:42:11;;;;;;;8.10;5.33;;;8.60;99.90;;;;;;5092323;28;20288;-59
2021/03/30 02:44:40;;;;;;;10.57;6.27;;;8.60;99.90;;;;;;5092484;28;20323;-60
2021/03/30 02:47:08;;;;;;;10.57;7.10;;;8.70;99.90;;;;;;5092941;28;20200;-59
2021/03/30 02:49:36;;;;;;;19.17;8.00;;;8.60;99.90;;;;;;5092840;28;20278;-58
2021/03/30 02:52:05;;;;;;;12.97;6.97;;;8.60;99.90;;;;;;5092882;28;20214;-60
2021/03/30 02:54:32;;;;;;;11.97;7.17;;;8.60;99.90;;;;;;5092625;28;20735;-60
2021/03/30 02:57:00;;;;;;;13.37;7.73;;;8.50;99.90;;;;;;5092742;28;20257;-58
2021/03/30 02:59:29;;;;;;;12.57;7.10;;;8.50;99.90;;;;;;5092439;28;20727;-59
2021/03/30 03:01:58;;;;;;;12.80;6.50;;;8.40;99.90;;;;;;5092714;28;20199;-59
2021/03/30 03:04:25;;;;;;;11.77;6.50;;;8.40;99.90;;;;;;5092679;28;20200;-59
2021/03/30 03:06:52;;;;;;;11.97;6.33;;;8.30;99.90;;;;;;5092486;28;20644;-60
2021/03/30 03:09:20;;;;;;;10.67;5.57;;;8.40;99.90;;;;;;5094138;28;20202;-60
2021/03/30 03:11:49;;;;;;;9.10;6.00;;;8.40;99.90;;;;;;5096816;28;20285;-60
2021/03/30 03:14:19;;;;;;;12.43;6.60;;;8.30;99.90;;;;;;5096443;28;20679;-58
2021/03/30 03:16:47;;;;;;;13.37;7.50;;;8.30;99.90;;;;;;5096741;28;20216;-59
2021/03/30 03:19:16;;;;;;;10.43;6.57;;;8.30;99.90;;;;;;5096443;28;20303;-59
2021/03/30 03:21:44;;;;;;;11.80;6.43;;;8.30;99.90;;;;;;5096718;28;20200;-60
2021/03/30 03:24:13;;;;;;;10.63;6.60;;;8.30;99.90;;;;;;5096606;28;20249;-60
2021/03/30 03:26:41;;;;;;;11.30;5.50;;;8.20;99.90;;;;;;5096002;28;20703;-60
2021/03/30 03:29:13;;;;;;;11.27;5.90;;;8.20;99.90;;;;;;5095921;28;20643;-60
2021/03/30 03:31:40;;;;;;;11.43;6.80;;;8.20;99.90;;;;;;5096395;28;20200;-59
2021/03/30 03:34:06;;;;;;;12.03;7.67;;;8.20;99.90;;;;;;5096543;28;20196;-59
2021/03/30 03:36:37;;;;;;;14.03;7.40;;;8.20;99.90;;;;;;5096424;28;20287;-60
2021/03/30 03:39:06;;;;;;;12.07;6.13;;;8.30;99.90;;;;;;5095860;28;20275;-60
2021/03/30 03:41:33;;;;;;;10.70;6.63;;;8.30;99.90;;;;;;5096217;28;20196;-60
2021/03/30 03:44:01;;;;;;;10.63;6.63;;;8.20;99.90;;;;;;5095960;28;20300;-60
2021/03/30 03:46:28;;;;;;;9.13;6.83;;;8.20;99.90;;;;;;5095880;28;20234;-60
2021/03/30 03:48:55;;;;;;;11.30;6.77;;;8.20;99.90;;;;;;5096118;28;20281;-60
2021/03/30 03:51:23;;;;;;;12.20;6.30;;;8.20;99.90;;;;;;5095725;28;20621;-60
2021/03/30 03:53:53;;;;;;;10.50;6.20;;;8.20;99.90;;;;;;5096074;28;20294;-60
2021/03/30 03:56:26;;;;;;;13.03;6.70;;;8.20;99.90;;;;;;5095965;28;20200;-59
2021/03/30 03:58:59;;;;;;;16.30;9.17;;;8.20;99.90;;;;;;5095620;28;20581;-60
2021/03/30 04:01:36;;;;;;;15.17;8.43;;;8.10;99.90;;;;;;5095958;28;20623;-59
2021/03/30 04:04:07;;;;;;;12.03;7.00;;;8.10;99.90;;;;;;5095263;28;20184;-59
2021/03/30 04:06:40;;;;;;;7.97;6.77;;;8.10;99.90;;;;;;5095769;28;20201;-59
2021/03/30 04:09:11;;;;;;;12.03;5.83;;;8.10;99.90;;;;;;5095947;28;20223;-60
2021/03/30 04:11:40;;;;;;;8.60;6.23;;;8.10;99.90;;;;;;5095464;28;20636;-60
2021/03/30 04:14:08;;;;;;;13.13;5.97;;;8.10;99.90;;;;;;5095476;28;20202;-61
2021/03/30 04:16:36;;;;;;;11.07;6.27;;;8.20;99.90;;;;;;5095323;28;20656;-59
2021/03/30 04:19:03;;;;;;;9.17;6.10;;;8.10;99.90;;;;;;5095455;28;20204;-59
2021/03/30 04:21:32;;;;;;;7.63;5.70;;;8.10;99.90;;;;;;5094391;28;20294;-58
2021/03/30 04:23:59;;;;;;;7.43;5.90;;;8.00;99.90;;;;;;5096291;28;20299;-59
2021/03/30 04:26:27;;;;;;;10.57;6.80;;;8.00;99.90;;;;;;5095895;28;20596;-58
2021/03/30 04:28:54;;;;;;;11.40;6.53;;;8.00;99.90;;;;;;5095187;28;20203;-60
2021/03/30 04:31:21;;;;;;;14.00;6.67;;;8.00;99.90;;;;;;5095344;28;20231;-59
2021/03/30 04:33:49;;;;;;;11.90;6.97;;;8.00;99.90;;;;;;5095360;28;20226;-60
2021/03/30 04:36:15;;;;;;;14.77;7.37;;;8.10;99.90;;;;;;5095264;28;20278;-59
2021/03/30 04:38:42;;;;;;;14.07;7.23;;;8.10;99.90;;;;;;5095010;28;20202;-60
2021/03/30 04:41:09;;;;;;;9.97;6.70;;;8.20;99.90;;;;;;5095129;28;20210;-59
2021/03/30 04:43:36;;;;;;;11.20;6.53;;;8.20;99.90;;;;;;5094824;28;20299;-60
2021/03/30 04:46:03;;;;;;;9.63;5.70;;;8.20;99.90;;;;;;5094935;28;20251;-60
2021/03/30 04:48:30;;;;;;;8.70;6.40;;;8.10;99.90;;;;;;5094863;28;20303;-59
2021/03/30 04:50:58;;;;;;;8.97;5.60;;;8.00;99.90;;;;;;5094755;28;20218;-58
2021/03/30 04:53:26;;;;;;;13.03;6.23;;;8.00;99.90;;;;;;5091916;28;20576;-62
2021/03/30 04:55:53;;;;;;;9.10;5.90;;;8.00;99.90;;;;;;5094587;28;20220;-61
2021/03/30 04:58:20;;;;;;;14.10;7.43;;;7.90;99.90;;;;;;5094565;28;20228;-59
2021/03/30 05:00:48;;;;;;;13.60;7.00;;;8.00;99.90;;;;;;5094058;28;20914;-59
2021/03/30 05:03:15;;;;;;;10.60;5.43;;;8.00;99.90;;;;;;5094229;28;20196;-61
2021/03/30 05:05:42;;;;;;;8.03;5.30;;;8.10;99.90;;;;;;5094456;28;20318;-59
2021/03/30 05:08:09;;;;;;;8.63;6.13;;;8.00;99.90;;;;;;5094162;28;20239;-59
2021/03/30 05:10:36;;;;;;;8.33;5.07;;;8.00;99.90;;;;;;5094081;28;20551;-59
2021/03/30 05:13:03;;;;;;;10.07;5.67;;;8.00;99.90;;;;;;5094290;28;20603;-59
2021/03/30 05:15:30;;;;;;;15.30;6.80;;;7.90;99.90;;;;;;5094112;28;20199;-60
2021/03/30 05:17:57;;;;;;;30.43;7.80;;;7.90;99.90;;;;;;5094169;28;20287;-60
2021/03/30 05:20:24;;;;;;;12.30;4.87;;;7.90;99.90;;;;;;5094222;28;20211;-60
2021/03/30 05:22:51;;;;;;;15.87;5.67;;;7.80;99.90;;;;;;5093818;28;20294;-60
2021/03/30 05:25:18;;;;;;;10.17;4.40;;;7.70;99.90;;;;;;5093718;28;20237;-59
2021/03/30 05:27:45;;;;;;;8.73;5.40;;;7.70;99.90;;;;;;5093673;28;20279;-59
2021/03/30 05:30:13;;;;;;;9.70;4.97;;;7.60;99.90;;;;;;5093565;28;20200;-59
2021/03/30 05:32:40;;;;;;;7.70;4.70;;;7.60;99.90;;;;;;5093710;28;20283;-60
2021/03/30 05:35:10;;;;;;;9.03;5.20;;;7.70;99.90;;;;;;5093909;28;20199;-61
2021/03/30 05:37:41;;;;;;;9.77;4.67;;;7.70;99.90;;;;;;5093236;28;20196;-60
2021/03/30 05:40:10;;;;;;;11.73;5.00;;;7.80;99.90;;;;;;5084412;28;20287;-59
2021/03/30 05:42:42;;;;;;;8.83;5.17;;;7.80;99.90;;;;;;5075147;28;20233;-58
2021/03/30 05:45:11;;;;;;;9.27;5.63;;;7.90;99.90;;;;;;5072863;28;20292;-60
2021/03/30 05:47:38;;;;;;;10.53;5.50;;;8.20;99.90;;;;;;5073345;28;20196;-60
2021/03/30 05:50:10;;;;;;;11.67;5.27;;;8.30;99.90;;;;;;5090332;28;20415;-60
2021/03/30 05:52:45;;;;;;;8.27;4.97;;;8.40;99.90;;;;;;5083309;28;20656;-60
2021/03/30 05:55:17;;;;;;;10.33;4.60;;;8.60;99.90;;;;;;5079116;28;20675;-60
2021/03/30 05:57:45;;;;;;;9.53;5.00;;;8.70;99.90;;;;;;5084158;28;20246;-59
2021/03/30 06:00:13;;;;;;;5.80;4.67;;;8.90;99.90;;;;;;5093007;28;20322;-59
2021/03/30 06:02:43;;;;;;;5.73;4.47;;;9.00;99.90;;;;;;5092997;28;20246;-60
2021/03/30 06:05:13;;;;;;;7.67;4.87;;;9.00;99.90;;;;;;5092910;28;20180;-59
2021/03/30 06:07:40;;;;;;;8.30;4.60;;;9.10;99.90;;;;;;5092962;28;20203;-59
2021/03/30 06:10:09;;;;;;;6.37;4.70;;;9.20;99.90;;;;;;5093090;28;20236;-60
2021/03/30 06:12:37;;;;;;;10.50;5.73;;;9.30;99.90;;;;;;5092934;28;20227;-59
2021/03/30 06:15:07;;;;;;;11.33;5.70;;;9.30;99.90;;;;;;5086367;28;20206;-59
2021/03/30 06:17:40;;;;;;;9.07;4.90;;;9.50;99.90;;;;;;5076955;28;20284;-64
2021/03/30 06:20:10;;;;;;;9.10;4.83;;;9.40;99.90;;;;;;5073030;28;20185;-60
2021/03/30 06:22:48;;;;;;;7.70;4.90;;;9.50;99.90;;;;;;5072522;28;20279;-60
2021/03/30 06:25:34;;;;;;;6.40;4.87;;;9.60;99.90;;;;;;5072644;28;20279;-59
2021/03/30 06:28:13;;;;;;;10.33;5.00;;;9.70;99.90;;;;;;5072440;28;20847;-60
2021/03/30 06:30:54;;;;;;;7.20;5.10;;;9.80;99.90;;;;;;5072298;28;20714;-60
2021/03/30 06:33:21;;;;;;;6.60;4.60;;;9.90;99.90;;;;;;5072902;28;20275;-59
2021/03/30 06:35:49;;;;;;;9.57;5.63;;;9.90;99.90;;;;;;5072352;28;20248;-59
2021/03/30 06:38:16;;;;;;;7.63;5.07;;;9.90;99.90;;;;;;5072678;28;20284;-60
2021/03/30 06:40:45;;;;;;;9.10;5.00;;;10.00;99.90;;;;;;5072568;28;20287;-59
2021/03/30 06:46:09;;;;;;;9.17;5.07;;;10.00;99.90;;;;;;5079212;28;20255;-59
2021/03/30 06:48:38;;;;;;;7.60;5.10;;;10.20;99.90;;;;;;5085501;28;20295;-60
2021/03/30 06:51:17;;;;;;;9.17;5.47;;;10.30;99.90;;;;;;5085575;28;20291;-59
2021/03/30 06:53:44;;;;;;;11.33;5.20;;;10.40;99.90;;;;;;5080211;28;20275;-63
2021/03/30 06:56:11;;;;;;;9.97;5.30;;;10.60;99.90;;;;;;5075976;28;20230;-60
2021/03/30 06:58:55;;;;;;;11.83;5.73;;;10.60;99.90;;;;;;5090881;28;20521;-60
2021/03/30 07:01:25;;;;;;;10.83;5.70;;;10.70;99.90;;;;;;5078836;28;20208;-62
2021/03/30 07:03:54;;;;;;;10.23;5.43;;;10.80;99.90;;;;;;5085823;28;20239;-61
2021/03/30 07:06:21;;;;;;;7.97;5.00;;;11.00;99.90;;;;;;5088966;28;20310;-59
2021/03/30 07:08:48;;;;;;;7.83;5.87;;;11.10;99.90;;;;;;5089126;28;20311;-60
2021/03/30 07:11:17;;;;;;;8.50;5.47;;;11.20;99.90;;;;;;5082844;28;20227;-59
2021/03/30 07:13:43;;;;;;;7.13;5.77;;;11.30;99.90;;;;;;5071117;28;20204;-62
2021/03/30 07:16:19;;;;;;;9.73;5.63;;;11.50;99.90;;;;;;5068600;28;20645;-62
2021/03/30 07:18:49;;;;;;;9.70;5.57;;;11.60;99.90;;;;;;5069245;28;20273;-63
2021/03/30 07:21:23;;;;;;;10.47;5.90;;;11.70;99.90;;;;;;5069012;28;20272;-63
2021/03/30 07:23:54;;;;;;;11.80;5.87;;;11.80;99.90;;;;;;5069274;28;20223;-62
2021/03/30 07:26:23;;;;;;;9.30;5.57;;;11.90;99.90;;;;;;5071267;28;20419;-63
2021/03/30 07:28:58;;;;;;;10.67;6.00;;;11.90;99.90;;;;;;5087473;28;20208;-62
2021/03/30 07:31:37;;;;;;;8.13;5.83;;;12.10;99.90;;;;;;5079406;28;20204;-62
2021/03/30 07:34:09;;;;;;;7.00;5.53;;;12.20;99.90;;;;;;5082968;28;20200;-63
2021/03/30 07:36:43;;;;;;;9.53;6.07;;;12.30;99.90;;;;;;5076013;28;20275;-59
2021/03/30 07:39:10;;;;;;;12.30;5.83;;;12.50;99.90;;;;;;5082810;28;20224;-61
2021/03/30 07:41:39;;;;;;;9.27;5.57;;;12.60;99.90;;;;;;5086008;28;20287;-60
2021/03/30 07:44:07;;;;;;;8.53;5.80;;;12.70;99.90;;;;;;5087558;28;20220;-60
2021/03/30 07:46:35;;;;;;;8.30;5.83;;;12.80;99.90;;;;;;5087675;28;20267;-58
2021/03/30 07:49:03;;;;;;;10.10;5.80;;;12.90;99.90;;;;;;5085475;28;20203;-59
2021/03/30 07:51:36;;;;;;;10.83;6.17;;;13.00;99.90;;;;;;5087320;28;20269;-61
2021/03/30 07:54:09;;;;;;;10.40;6.23;;;13.20;99.90;;;;;;5085403;28;20283;-61
2021/03/30 07:56:55;;;;;;;8.57;5.63;;;13.30;99.90;;;;;;5091390;28;20224;-61
2021/03/30 07:59:45;;;;;;;8.10;5.70;;;13.50;99.90;;;;;;5090750;28;20216;-60
2021/03/30 08:02:22;;;;;;;9.68;5.78;;;13.60;99.90;;;;;;5092489;28;20286;-61
2021/03/30 08:05:08;;;;;;;9.07;5.33;;;13.70;99.90;;;;;;5091984;28;20322;-60
2021/03/30 08:07:50;;;;;;;9.13;6.00;;;13.80;99.90;;;;;;5091579;28;20200;-59
2021/03/30 08:10:32;;;;;;;11.30;5.80;;;14.00;99.90;;;;;;5091176;28;20212;-60
2021/03/30 08:13:32;;;;;;;9.97;6.23;;;14.10;99.90;;;;;;5091826;28;20185;-59
2021/03/30 08:16:01;;;;;;;14.75;6.78;;;14.30;99.90;;;;;;5091226;28;20286;-61
2021/03/30 08:18:30;;;;;;;10.95;5.80;;;14.50;99.90;;;;;;5091589;28;20204;-61
2021/03/30 08:21:00;;;;;;;10.90;6.10;;;14.60;99.90;;;;;;5091630;28;20258;-60
2021/03/30 08:23:28;;;;;;;8.00;5.85;;;14.70;99.90;;;;;;5089824;28;20303;-60
2021/03/30 08:26:17;;;;;;;9.32;5.88;;;14.80;99.90;;;;;;5079669;28;20236;-59
2021/03/30 08:28:55;;;;;;;10.60;5.95;;;14.90;99.90;;;;;;5070716;28;20594;-59
2021/03/30 08:31:24;;;;;;;9.35;5.55;;;15.10;99.90;;;;;;5071402;28;20195;-59
2021/03/30 08:33:53;;;;;;;12.57;5.93;;;15.20;99.90;;;;;;5071124;28;20346;-59
2021/03/30 08:36:47;;;;;;;11.15;5.63;;;15.30;99.90;;;;;;5076868;28;20349;-60
2021/03/30 08:39:33;;;;;;;9.32;5.95;;;15.50;99.90;;;;;;5071551;28;20207;-59
2021/03/30 08:42:09;;;;;;;9.65;6.20;;;15.60;99.90;;;;;;5070774;28;20223;-59
2021/03/30 08:44:47;;;;;;;9.57;6.20;;;15.70;99.90;;;;;;5071385;28;20531;-59
2021/03/30 08:47:44;;;;;;;10.25;6.20;;;15.70;99.90;;;;;;5071274;28;20624;-60
2021/03/30 08:50:23;;;;;;;8.40;5.90;;;15.90;99.90;;;;;;5089278;28;20651;-59
2021/03/30 08:52:51;;;;;;;9.02;6.10;;;16.00;99.90;;;;;;5091643;28;20188;-60
2021/03/30 08:55:26;;;;;;;9.90;6.43;;;16.10;99.90;;;;;;5091644;28;20196;-60
2021/03/30 08:57:53;;;;;;;8.43;6.13;;;16.20;99.90;;;;;;5091554;28;20188;-59
2021/03/30 09:00:21;;;;;;;9.85;6.50;;;16.30;99.90;;;;;;5090966;28;20253;-59
2021/03/30 09:03:00;;;;;;;9.95;6.43;;;16.40;99.90;;;;;;5091262;28;20287;-59
2021/03/30 09:05:27;;;;;;;11.98;7.82;;;16.50;99.90;;;;;;5087793;28;20299;-57
2021/03/30 09:07:54;;;;;;;9.95;6.68;;;16.60;99.90;;;;;;5078206;28;20232;-59
2021/03/30 09:10:21;;;;;;;8.85;6.88;;;16.70;99.90;;;;;;5079137;28;20295;-59
2021/03/30 09:12:48;;;;;;;12.77;7.28;;;16.80;99.90;;;;;;5080145;28;20642;-59
2021/03/30 09:15:16;;;;;;;10.60;7.03;;;16.80;99.90;;;;;;5078155;28;20287;-60
2021/03/30 09:17:55;;;;;;;9.82;6.60;;;16.80;99.90;;;;;;5070485;28;20236;-57
2021/03/30 09:20:22;;;;;;;11.80;6.70;;;16.90;99.90;;;;;;5070898;28;20255;-59
2021/03/30 09:22:51;;;;;;;10.98;6.93;;;17.00;99.90;;;;;;5070516;28;20217;-60
2021/03/30 09:25:33;;;;;;;13.80;7.07;;;17.00;99.90;;;;;;5070572;28;20284;-59
2021/03/30 09:28:01;;;;;;;9.43;7.07;;;17.10;99.90;;;;;;5070152;28;20210;-60
2021/03/30 09:30:29;;;;;;;10.82;7.40;;;17.30;99.90;;;;;;5079258;28;20633;-59
2021/03/30 09:32:58;;;;;;;13.20;7.72;;;17.40;99.90;;;;;;5079527;28;20307;-60
2021/03/30 09:35:27;;;;;;;8.18;7.18;;;17.40;99.90;;;;;;5069604;28;20574;-59
2021/03/30 09:37:56;;;;;;;11.05;7.20;;;17.40;99.90;;;;;;5069878;28;20730;-59
2021/03/30 09:40:26;;;;;;;10.45;7.10;;;17.50;99.90;;;;;;5069698;28;20755;-59
2021/03/30 09:42:54;;;;;;;10.10;7.65;;;17.60;99.90;;;;;;5070110;28;20200;-59
2021/03/30 09:45:23;;;;;;;11.18;8.25;;;17.70;99.90;;;;;;5070304;28;20205;-61
2021/03/30 09:47:50;;;;;;;11.73;8.02;;;17.80;99.90;;;;;;5070133;28;20231;-61
2021/03/30 09:50:20;;;;;;;10.45;7.63;;;17.80;99.90;;;;;;5089149;28;20200;-60
2021/03/30 09:52:48;;;;;;;10.38;8.00;;;17.90;99.90;;;;;;5090376;28;20204;-60
2021/03/30 09:55:29;;;;;;;13.45;8.43;;;17.90;99.60;;;;;;5090517;28;20601;-60
2021/03/30 09:58:00;;;;;;;13.60;8.48;;;17.90;99.90;;;;;;5090086;28;20588;-56
2021/03/30 10:00:28;;;;;;;12.75;8.80;;;18.00;99.90;;;;;;5090004;28;20723;-58
2021/03/30 10:02:55;;;;;;;10.35;7.85;;;18.00;99.90;;;;;;5090242;28;20208;-58
2021/03/30 10:05:23;;;;;;;11.38;8.07;;;18.00;99.90;;;;;;5090466;28;20222;-59
2021/03/30 10:07:50;;;;;;;8.77;7.55;;;18.10;99.70;;;;;;5086566;28;20306;-58
2021/03/30 10:10:17;;;;;;;10.65;8.82;;;18.20;99.20;;;;;;5089367;28;20196;-59
2021/03/30 10:12:49;;;;;;;11.60;9.07;;;18.30;99.10;;;;;;5087736;28;20220;-60
2021/03/30 10:15:33;;;;;;;15.23;9.30;;;18.40;99.00;;;;;;5088427;28;20180;-60
2021/03/30 10:18:03;;;;;;;13.80;8.93;;;18.50;96.60;;;;;;5079180;28;20234;-63
2021/03/30 10:20:30;;;;;;;13.75;9.27;;;18.60;96.40;;;;;;5079239;28;20224;-62
2021/03/30 10:22:57;;;;;;;14.20;10.40;;;18.50;96.20;;;;;;5085705;28;20279;-58
2021/03/30 10:25:29;;;;;;;11.57;9.02;;;18.60;97.40;;;;;;5086944;28;21039;-59
2021/03/30 10:27:58;;;;;;;14.05;8.57;;;18.60;96.90;;;;;;5084095;28;20223;-58
2021/03/30 10:30:30;;;;;;;12.95;9.40;;;18.70;95.70;;;;;;5079655;28;20228;-60
2021/03/30 10:33:00;;;;;;;13.75;9.52;;;18.70;94.40;;;;;;5081706;28;20204;-56
2021/03/30 10:35:27;;;;;;;16.02;9.50;;;18.80;94.90;;;;;;5070524;28;20204;-57
2021/03/30 10:37:54;;;;;;;13.95;9.77;;;18.90;93.70;;;;;;5079708;28;20753;-59
2021/03/30 10:40:29;;;;;;;17.42;11.18;;;18.90;92.40;;;;;;5088450;28;20203;-61
2021/03/30 10:42:56;;;;;;;15.25;10.90;;;18.90;93.50;;;;;;5088131;28;20283;-59
2021/03/30 10:45:30;;;;;;;14.57;10.45;;;18.90;92.40;;;;;;5088036;28;20188;-60
2021/03/30 10:48:01;;;;;;;16.40;9.77;;;18.90;94.10;;;;;;5084413;28;20589;-59
2021/03/30 10:50:28;;;;;;;12.30;9.35;;;19.00;93.80;;;;;;5087112;28;20210;-62
2021/03/30 10:52:56;;;;;;;12.95;9.52;;;19.00;94.10;;;;;;5085798;28;20819;-60
2021/03/30 10:55:23;;;;;;;13.30;9.50;;;19.10;93.40;;;;;;5086925;28;20246;-58
2021/03/30 10:57:51;;;;;;;14.02;9.48;;;19.10;93.80;;;;;;5087933;28;20243;-60
2021/03/30 11:00:19;;;;;;;12.70;9.80;;;19.20;94.70;;;;;;5088140;28;20192;-60
2021/03/30 11:02:46;;;;;;;13.00;9.27;;;19.10;94.10;;;;;;5089623;28;20247;-59
2021/03/30 11:05:15;;;;;;;19.63;10.80;;;19.20;94.80;;;;;;5089292;28;20207;-58
2021/03/30 11:07:42;;;;;;;11.73;9.27;;;19.20;94.80;;;;;;5088588;28;20230;-59
2021/03/30 11:10:11;;;;;;;15.05;9.40;;;19.20;94.00;;;;;;5089199;28;20286;-59
2021/03/30 11:12:39;;;;;;;13.18;9.70;;;19.30;94.50;;;;;;5088399;28;20259;-60
2021/03/30 11:15:08;;;;;;;14.82;9.57;;;19.30;94.30;;;;;;5088811;28;20288;-60
2021/03/30 11:17:36;;;;;;;10.98;8.95;;;19.30;93.20;;;;;;5089043;28;20235;-58
2021/03/30 11:20:04;;;;;;;14.45;9.00;;;19.40;92.30;;;;;;5089117;28;20238;-59
2021/03/30 11:22:30;;;;;;;12.13;8.80;;;19.50;91.70;;;;;;5085601;28;20616;-60
2021/03/30 11:25:00;;;;;;;14.05;8.95;;;19.50;90.60;;;;;;5088174;28;20208;-58
2021/03/30 11:27:30;;;;;;;10.10;8.82;;;19.50;90.40;;;;;;5087690;28;20240;-60
2021/03/30 11:30:05;;;;;;;11.02;8.45;;;19.50;90.90;;;;;;5089670;28;20202;-60
2021/03/30 11:32:35;;;;;;;11.98;8.38;;;19.50;91.70;;;;;;5093369;28;20184;-60
2021/03/30 11:35:10;;;;;;;11.52;9.20;;;19.50;89.20;;;;;;5092998;28;20204;-60
2021/03/30 11:37:45;;;;;;;14.07;9.88;;;19.50;90.60;;;;;;5091354;28;20176;-60
2021/03/30 11:40:13;;;;;;;15.82;11.02;;;19.50;91.70;;;;;;5081003;28;20216;-59
2021/03/30 11:42:41;;;;;;;18.40;10.35;;;19.60;92.60;;;;;;5091363;28;20755;-58
2021/03/30 11:45:09;;;;;;;13.38;9.55;;;19.60;91.20;;;;;;5091378;28;20652;-59
2021/03/30 11:47:36;;;;;;;14.30;9.93;;;19.60;91.20;;;;;;5091040;28;20216;-59
2021/03/30 11:50:06;;;;;;;12.52;9.02;;;19.70;91.20;;;;;;5091962;28;21193;-59
2021/03/30 11:52:33;;;;;;;11.93;8.63;;;19.70;88.50;;;;;;5089011;28;20227;-58
2021/03/30 11:55:01;;;;;;;15.02;9.93;;;19.70;87.50;;;;;;5091612;28;20207;-59
2021/03/30 11:57:28;;;;;;;13.73;8.90;;;19.80;88.10;;;;;;5091290;28;20277;-61
2021/03/30 11:59:55;;;;;;;10.25;8.85;;;19.90;89.20;;;;;;5091286;28;20196;-60
2021/03/30 12:02:22;;;;;;;12.23;9.15;;;19.90;87.30;;;;;;5091585;28;20279;-59
2021/03/30 12:04:49;;;;;;;11.52;8.90;;;20.00;84.10;;;;;;5091401;28;20223;-59
2021/03/30 12:07:16;;;;;;;13.77;8.82;;;20.00;85.20;;;;;;5081844;28;20768;-61
2021/03/30 12:10:04;;;;;;;14.02;9.48;;;20.10;87.50;;;;;;5089528;28;20204;-60
2021/03/30 12:12:31;;;;;;;14.50;9.93;;;20.10;86.60;;;;;;5088376;28;20250;-59
2021/03/30 12:14:59;;;;;;;14.82;10.15;;;20.10;86.70;;;;;;5091111;28;20297;-59
2021/03/30 12:17:26;;;;;;;13.40;9.45;;;20.10;88.30;;;;;;5090588;28;20287;-59
2021/03/30 12:19:52;;;;;;;13.40;10.00;;;20.10;87.10;;;;;;5091134;28;20682;-60
2021/03/30 12:22:20;;;;;;;14.50;9.55;;;20.10;87.90;;;;;;5090501;28;20200;-61
2021/03/30 12:24:47;;;;;;;12.05;9.98;;;20.30;86.10;;;;;;5090948;28;20279;-59
2021/03/30 12:27:13;;;;;;;12.60;9.95;;;20.30;86.30;;;;;;5090074;28;20315;-60
2021/03/30 12:29:41;;;;;;;13.95;9.52;;;20.40;86.60;;;;;;5090977;28;20196;-61
2021/03/30 12:32:10;;;;;;;13.90;9.27;;;20.40;86.90;;;;;;5090558;28;20282;-59
2021/03/30 12:34:37;;;;;;;15.85;10.30;;;20.50;84.60;;;;;;5090890;28;20249;-59
2021/03/30 12:37:05;;;;;;;14.52;9.25;;;20.50;83.20;;;;;;5090325;28;20199;-59
2021/03/30 12:39:32;;;;;;;11.90;9.20;;;20.50;82.80;;;;;;5088692;28;20275;-57
2021/03/30 12:41:58;;;;;;;12.43;8.45;;;20.50;83.50;;;;;;5089264;28;20283;-59
2021/03/30 12:44:26;;;;;;;11.68;8.07;;;20.50;80.10;;;;;;5079304;28;20214;-59
2021/03/30 12:46:53;;;;;;;12.13;8.85;;;20.40;78.10;;;;;;5088048;28;20311;-60
2021/03/30 12:49:22;;;;;;;14.38;9.52;;;20.50;79.50;;;;;;5090395;28;20283;-60
2021/03/30 12:51:49;;;;;;;13.95;9.57;;;20.50;82.40;;;;;;5090499;28;20284;-60
2021/03/30 12:54:16;;;;;;;12.88;8.90;;;20.50;81.50;;;;;;5090026;28;20235;-60
2021/03/30 12:56:43;;;;;;;14.57;9.55;;;20.50;82.30;;;;;;5090543;28;20550;-62
2021/03/30 12:59:10;;;;;;;14.32;10.38;;;20.60;82.10;;;;;;5090306;28;20302;-60
2021/03/30 13:01:37;;;;;;;16.85;10.18;;;20.60;84.10;;;;;;5089166;28;20648;-62
2021/03/30 13:04:04;;;;;;;14.13;9.40;;;20.70;84.50;;;;;;5090196;28;20239;-60